Bono, Arkansas
Current Conditions -  °F | °C
As of 8:53 PM on Sunday 23 Nov 2014 (Local Time) from KJBR Reporting Station
Overcast Overcast  
Wind Chill: 60°   Ceiling: 800
Heat Index: 60°   Visibility: 10mi
Dew Point: 59°   Wind: 14mph
Humidity: 96%   Direction: 200°SSW
Pressure: 29.37"   Gusts: NA
Location:  35.91°N, 90.8°W
Report Text: KJBR 240253Z AUTO 20012KT 10SM OVC008 16/15 A2937 RMK AO2 SLP945 T01560150 50004 $
Loading
Personal Weather Stations






























Interactive Weather Map New forecast layout! Learn more

10-Day Weather Forecast

Advertisements
Track Severe Weather on mobile